Time;durP1;ratioP1;P1;durP2;ratioP2;P2;SDS_P1;SDS_P2;PMS_P1;PMS_P2;Temp;Humidity;BMP_temperature;BMP_pressure;BME280_temperature;BME280_humidity;BME280_pressure;Samples;Min_cycle;Max_cycle;Signal;HPM_P1;HPM_P2
2022/09/07 00:00:34;;;;;;;15.18;7.53;;;;;;;16.72;100.00;92779.16;5031761;28;20036;-74
2022/09/07 00:03:00;;;;;;;10.45;7.95;;;;;;;16.67;100.00;92782.00;5015289;28;20144;-75
2022/09/07 00:05:26;;;;;;;14.43;7.30;;;;;;;16.68;100.00;92783.53;5032942;28;20454;-75
2022/09/07 00:07:51;;;;;;;13.52;6.50;;;;;;;16.65;100.00;92773.59;5031371;28;20042;-75
2022/09/07 00:10:17;;;;;;;10.75;6.03;;;;;;;16.63;100.00;92767.84;5032663;28;20029;-74
2022/09/07 00:12:42;;;;;;;10.55;5.63;;;;;;;16.56;100.00;92768.34;5032760;28;20090;-74
2022/09/07 00:15:10;;;;;;;11.98;5.57;;;;;;;16.51;100.00;92770.38;5032948;28;20041;-74
2022/09/07 00:17:36;;;;;;;9.90;4.80;;;;;;;16.48;100.00;92773.66;5032493;28;20056;-75
2022/09/07 00:20:04;;;;;;;7.05;4.40;;;;;;;16.47;100.00;92774.75;5032531;28;20014;-74
2022/09/07 00:22:30;;;;;;;7.65;4.10;;;;;;;16.41;100.00;92767.00;5032506;28;20430;-75
2022/09/07 00:24:55;;;;;;;12.27;4.35;;;;;;;16.36;100.00;92782.22;5014766;28;20112;-74
2022/09/07 00:27:21;;;;;;;10.27;4.63;;;;;;;16.30;100.00;92784.28;5032127;28;20082;-74
2022/09/07 00:29:46;;;;;;;10.27;5.38;;;;;;;16.27;100.00;92790.16;5032291;28;20084;-75
2022/09/07 00:32:12;;;;;;;8.75;5.03;;;;;;;16.25;100.00;92800.25;4998209;28;20458;-75
2022/09/07 00:34:37;;;;;;;11.43;5.68;;;;;;;16.20;100.00;92795.16;5032020;28;20050;-74
2022/09/07 00:37:03;;;;;;;10.07;5.20;;;;;;;16.16;100.00;92800.28;5032197;28;20041;-74
2022/09/07 00:39:29;;;;;;;9.73;4.60;;;;;;;16.15;100.00;92792.69;5014221;28;20087;-74
2022/09/07 00:41:54;;;;;;;11.93;4.68;;;;;;;16.13;100.00;92800.91;5032318;28;20104;-75
2022/09/07 00:44:42;;;;;;;8.15;4.30;;;;;;;16.12;100.00;92798.56;4998166;28;20061;-74
2022/09/07 00:47:16;;;;;;;9.02;4.32;;;;;;;16.10;100.00;92800.75;5032305;28;20037;-74
2022/09/07 00:49:46;;;;;;;6.38;4.15;;;;;;;16.08;100.00;92797.66;5031876;28;20517;-74
2022/09/07 00:52:13;;;;;;;10.98;4.68;;;;;;;16.05;100.00;92795.63;5014095;28;20049;-74
2022/09/07 00:54:44;;;;;;;7.68;4.35;;;;;;;16.01;100.00;92804.19;5031795;28;20041;-74
2022/09/07 00:57:10;;;;;;;10.88;4.88;;;;;;;16.02;100.00;92799.66;5012708;28;20056;-74
2022/09/07 00:59:41;;;;;;;8.55;4.90;;;;;;;15.94;100.00;92803.09;5014143;28;20125;-75
2022/09/07 01:02:07;;;;;;;11.85;4.80;;;;;;;15.90;100.00;92805.59;5031676;28;20040;-75
2022/09/07 01:04:34;;;;;;;7.68;4.82;;;;;;;15.89;100.00;92806.66;5030366;28;20025;-75
2022/09/07 01:07:01;;;;;;;10.57;5.32;;;;;;;15.90;100.00;92802.94;5014340;28;20057;-74
2022/09/07 01:09:29;;;;;;;13.55;5.70;;;;;;;15.91;100.00;92807.13;4997812;28;20048;-74
2022/09/07 01:11:58;;;;;;;9.40;6.03;;;;;;;15.95;100.00;92810.69;5030009;28;20050;-75
2022/09/07 01:14:32;;;;;;;11.60;6.30;;;;;;;15.97;100.00;92799.84;5030329;28;20060;-74
2022/09/07 01:17:31;;;;;;;13.10;5.90;;;;;;;15.97;100.00;92797.97;5031536;28;20046;-75
2022/09/07 01:20:26;;;;;;;8.43;5.85;;;;;;;16.05;100.00;92793.75;5010735;28;20030;-75
2022/09/07 01:23:05;;;;;;;10.90;6.22;;;;;;;16.02;100.00;92786.47;5031239;28;20091;-74
2022/09/07 01:25:58;;;;;;;10.52;6.10;;;;;;;16.01;100.00;92783.06;5013378;28;20073;-74
2022/09/07 01:28:31;;;;;;;10.02;6.40;;;;;;;16.08;100.00;92787.09;5031367;28;20044;-75
2022/09/07 01:31:12;;;;;;;11.32;6.43;;;;;;;16.10;100.00;92790.19;5031275;28;20045;-74
2022/09/07 01:34:04;;;;;;;13.80;7.07;;;;;;;16.10;100.00;92782.25;5031771;28;20034;-75
2022/09/07 01:36:45;;;;;;;13.88;6.80;;;;;;;16.11;100.00;92781.19;5031302;28;20055;-74
2022/09/07 01:39:11;;;;;;;13.88;6.50;;;;;;;16.15;100.00;92777.59;5013170;28;20116;-74
2022/09/07 01:41:45;;;;;;;10.38;6.68;;;;;;;16.13;100.00;92776.38;5013430;28;20424;-74
2022/09/07 01:44:13;;;;;;;11.68;6.78;;;;;;;16.08;100.00;92766.75;5029417;28;20466;-75
2022/09/07 01:46:56;;;;;;;12.15;6.50;;;;;;;16.05;100.00;92766.59;5031039;28;20037;-75
2022/09/07 01:49:24;;;;;;;;;;;;;;;16.06;100.00;92768.16;5031564;28;20033;-75
2022/09/07 01:51:59;;;;;;;9.65;6.28;;;;;;;15.99;100.00;92758.84;5029560;28;19913;-74
2022/09/07 01:54:33;;;;;;;10.07;6.50;;;;;;;16.00;100.00;92757.72;5030943;28;20038;-73
2022/09/07 01:57:12;;;;;;;9.50;5.82;;;;;;;16.03;100.00;92754.47;5030936;28;20037;-75
2022/09/07 01:59:44;;;;;;;9.52;5.60;;;;;;;16.06;100.00;92749.66;5029860;28;20542;-74
2022/09/07 02:02:15;;;;;;;7.53;5.43;;;;;;;16.02;100.00;92747.63;5013322;28;20037;-74
2022/09/07 02:05:03;;;;;;;10.50;5.90;;;;;;;16.02;100.00;92747.63;5031029;28;20037;-74
2022/09/07 02:07:39;;;;;;;11.48;5.93;;;;;;;16.01;100.00;92751.38;5030816;28;20088;-74
2022/09/07 02:10:27;;;;;;;8.43;5.50;;;;;;;16.02;100.00;92744.22;5029544;28;20030;-75
2022/09/07 02:12:53;;;;;;;10.45;5.40;;;;;;;16.02;100.00;92744.22;5030830;28;20148;-75
2022/09/07 02:15:55;;;;;;;8.93;5.03;;;;;;;15.99;100.00;92745.63;5029871;28;20367;-74
2022/09/07 02:18:24;;;;;;;10.40;5.00;;;;;;;16.00;100.00;92744.53;4994248;28;20046;-75
2022/09/07 02:20:54;;;;;;;8.70;4.50;;;;;;;15.97;100.00;92750.44;5013085;28;20653;-74
2022/09/07 02:23:35;;;;;;;7.45;4.30;;;;;;;15.96;100.00;92751.53;4996559;28;20034;-75
2022/09/07 02:26:13;;;;;;;8.75;4.07;;;;;;;15.94;100.00;92751.06;5030594;28;20030;-74
2022/09/07 02:28:39;;;;;;;11.85;4.05;;;;;;;15.94;100.00;92745.00;5030514;28;20037;-75
2022/09/07 02:31:05;;;;;;;8.13;4.03;;;;;;;15.94;100.00;92747.63;5012501;28;20033;-74
2022/09/07 02:33:31;;;;;;;13.68;4.00;;;;;;;15.92;100.00;92742.69;5030557;28;20128;-74
2022/09/07 02:35:57;;;;;;;7.45;2.80;;;;;;;15.90;100.00;92739.59;4996697;28;20041;-75
2022/09/07 02:38:23;;;;;;;4.70;3.10;;;;;;;15.90;100.00;92741.47;5030461;28;20083;-74
2022/09/07 02:40:54;;;;;;;4.30;3.00;;;;;;;15.91;100.00;92738.47;5030934;28;20021;-75
2022/09/07 02:43:22;;;;;;;5.95;2.85;;;;;;;15.90;100.00;92739.59;5030293;28;20041;-74
2022/09/07 02:45:47;;;;;;;5.93;3.00;;;;;;;15.88;100.00;92744.41;5012645;28;20037;-74
2022/09/07 02:48:28;;;;;;;8.65;3.67;;;;;;;15.86;100.00;92738.66;5030227;28;20092;-75
2022/09/07 02:51:12;;;;;;;7.15;3.38;;;;;;;15.83;100.00;92741.94;5012438;28;20041;-75
2022/09/07 02:53:54;;;;;;;6.35;3.35;;;;;;;15.81;100.00;92739.59;5016605;28;20073;-75
2022/09/07 02:56:38;;;;;;;5.70;3.40;;;;;;;15.81;100.00;92749.38;5034141;28;20581;-76
2022/09/07 02:59:12;;;;;;;10.13;3.63;;;;;;;15.80;100.00;92745.94;5034368;28;20029;-75
2022/09/07 03:01:44;;;;;;;6.63;3.50;;;;;;;15.79;100.00;92748.91;5016332;28;20033;-75
2022/09/07 03:04:16;;;;;;;7.63;3.47;;;;;;;15.78;100.00;92747.34;5016507;28;20531;-75
2022/09/07 03:06:58;;;;;;;6.07;3.50;;;;;;;15.78;100.00;92747.34;5016117;28;20491;-75
2022/09/07 03:09:29;;;;;;;7.55;3.60;;;;;;;15.76;100.00;92744.25;5016176;28;20396;-75
2022/09/07 03:11:55;;;;;;;7.18;3.38;;;;;;;15.75;100.00;92746.09;5015925;28;20045;-75
2022/09/07 03:14:24;;;;;;;7.10;3.47;;;;;;;15.74;100.00;92743.81;5033712;28;20045;-75
2022/09/07 03:16:53;;;;;;;7.32;3.72;;;;;;;15.75;100.00;92747.97;5035182;28;20060;-74
2022/09/07 03:19:19;;;;;;;8.75;3.75;;;;;;;15.78;100.00;92748.16;5053795;28;20511;-75
2022/09/07 03:21:45;;;;;;;9.65;4.00;;;;;;;15.79;100.00;92743.63;5035755;28;20068;-74
2022/09/07 03:24:10;;;;;;;7.35;3.90;;;;;;;15.75;100.00;92748.75;5035660;28;20128;-74
2022/09/07 03:26:43;;;;;;;11.75;4.30;;;;;;;15.71;100.00;92745.16;5035730;28;20040;-74
2022/09/07 03:29:09;;;;;;;9.00;4.88;;;;;;;15.68;100.00;92745.00;5054319;28;20039;-74
2022/09/07 03:31:35;;;;;;;10.75;5.20;;;;;;;15.66;100.00;92739.25;5053961;28;20025;-75
2022/09/07 03:34:01;;;;;;;9.40;5.45;;;;;;;15.65;100.00;92735.84;5035682;28;20033;-74
2022/09/07 03:36:29;;;;;;;15.43;5.78;;;;;;;15.66;100.00;92740.03;5051970;28;20041;-74
2022/09/07 03:38:55;;;;;;;14.27;5.63;;;;;;;15.65;100.00;92742.97;5052297;28;20043;-75
2022/09/07 03:41:20;;;;;;;11.32;5.60;;;;;;;15.65;100.00;92738.50;5035284;28;20455;-75
2022/09/07 03:43:47;;;;;;;14.15;5.75;;;;;;;15.65;100.00;92733.22;5053237;28;20041;-75
2022/09/07 03:46:16;;;;;;;11.82;6.00;;;;;;;15.68;100.00;92742.38;5053016;28;20088;-74
2022/09/07 03:48:42;;;;;;;10.68;5.60;;;;;;;15.68;100.00;92737.09;5019387;28;20414;-74
2022/09/07 03:51:09;;;;;;;6.90;4.63;;;;;;;15.70;100.00;92734.91;5035089;28;20033;-75
2022/09/07 03:53:40;;;;;;;10.80;5.38;;;;;;;15.68;100.00;92724.66;5018760;28;20083;-75
2022/09/07 03:56:15;;;;;;;7.55;4.88;;;;;;;15.68;100.00;92716.75;5035345;28;20068;-74
2022/09/07 03:58:40;;;;;;;14.02;5.00;;;;;;;15.72;100.00;92727.50;5052983;28;20083;-75
2022/09/07 04:01:14;;;;;;;7.05;4.82;;;;;;;15.73;100.00;92729.81;5052995;28;20087;-74
2022/09/07 04:03:41;;;;;;;7.80;4.90;;;;;;;15.75;100.00;92722.34;5034853;28;20040;-74
2022/09/07 04:06:06;;;;;;;8.18;5.20;;;;;;;15.78;100.00;92713.03;5034928;28;20029;-74
2022/09/07 04:08:34;;;;;;;8.98;4.47;;;;;;;15.79;100.00;92717.25;5034734;28;20394;-75
2022/09/07 04:11:01;;;;;;;7.22;4.40;;;;;;;15.78;100.00;92710.41;5052445;28;20040;-75
2022/09/07 04:13:28;;;;;;;7.03;5.10;;;;;;;15.78;100.00;92710.41;5052933;28;20058;-75
2022/09/07 04:15:55;;;;;;;10.13;5.38;;;;;;;15.80;100.00;92710.84;5053129;28;20399;-75
2022/09/07 04:18:21;;;;;;;11.18;5.00;;;;;;;15.77;100.00;92708.84;5017915;28;20041;-75
2022/09/07 04:20:49;;;;;;;7.13;4.72;;;;;;;15.75;100.00;92701.25;5052372;28;20125;-74
2022/09/07 04:23:17;;;;;;;8.30;5.15;;;;;;;15.74;100.00;92698.94;5034645;28;20054;-75
2022/09/07 04:25:51;;;;;;;8.57;5.10;;;;;;;15.72;100.00;92704.50;5046648;28;20044;-75
2022/09/07 04:28:18;;;;;;;7.55;5.30;;;;;;;15.70;100.00;92695.34;5002286;28;20664;-76
2022/09/07 04:30:44;;;;;;;9.10;4.90;;;;;;;15.72;100.00;92693.19;5047340;28;20271;-76
2022/09/07 04:33:10;;;;;;;14.15;4.43;;;;;;;15.70;100.00;92693.47;5047709;28;20032;-75
2022/09/07 04:35:37;;;;;;;7.93;4.45;;;;;;;15.67;100.00;92690.66;5052333;28;20037;-75
2022/09/07 04:38:03;;;;;;;8.90;4.25;;;;;;;15.64;100.00;92699.97;5051923;28;20035;-75
2022/09/07 04:40:28;;;;;;;9.25;4.63;;;;;;;15.62;100.00;92700.28;5051955;28;20449;-74
2022/09/07 04:42:54;;;;;;;7.38;4.78;;;;;;;15.60;100.00;92693.78;5050617;28;20055;-74
2022/09/07 04:45:19;;;;;;;7.93;4.90;;;;;;;15.58;100.00;92695.94;5016183;28;20411;-74
2022/09/07 04:47:47;;;;;;;10.45;4.60;;;;;;;15.58;100.00;92696.75;4989991;28;20044;-76
2022/09/07 04:50:12;;;;;;;10.15;4.30;;;;;;;15.60;100.00;92699.03;5024338;28;20168;-76
2022/09/07 04:52:38;;;;;;;5.95;3.83;;;;;;;15.58;100.00;92694.09;5030784;28;20148;-74
2022/09/07 04:55:04;;;;;;;6.32;4.10;;;;;;;15.59;100.00;92700.16;5032166;28;20541;-74
2022/09/07 04:57:29;;;;;;;8.27;4.38;;;;;;;15.55;100.00;92702.63;5031529;28;20048;-74
2022/09/07 04:59:55;;;;;;;5.65;3.58;;;;;;;15.54;100.00;92706.34;5031399;28;20112;-74
2022/09/07 05:02:21;;;;;;;9.13;3.58;;;;;;;15.55;100.00;92705.25;5013503;28;20423;-74
2022/09/07 05:04:46;;;;;;;6.65;3.67;;;;;;;15.57;100.00;92711.00;5032035;28;20448;-74
2022/09/07 05:07:12;;;;;;;6.95;3.75;;;;;;;15.56;100.00;92714.75;5031553;28;20036;-74
2022/09/07 05:09:37;;;;;;;7.63;3.50;;;;;;;15.61;100.00;92719.84;5031789;28;20037;-79
2022/09/07 05:12:03;;;;;;;10.75;3.97;;;;;;;15.62;100.00;92724.03;5031199;28;20055;-76
2022/09/07 05:14:28;;;;;;;9.95;3.67;;;;;;;15.64;100.00;92730.88;4977425;28;20080;-75
2022/09/07 05:16:54;;;;;;;6.32;3.50;;;;;;;15.67;100.00;92727.59;5013792;28;20460;-75
2022/09/07 05:19:20;;;;;;;7.82;4.15;;;;;;;15.70;100.00;92729.63;5013898;28;20396;-74
2022/09/07 05:21:45;;;;;;;9.32;3.83;;;;;;;15.72;100.00;92732.78;5013778;28;20041;-76
2022/09/07 05:24:11;;;;;;;9.93;3.20;;;;;;;15.77;100.00;92732.59;5031426;28;20048;-74
2022/09/07 05:26:38;;;;;;;6.75;3.53;;;;;;;15.82;100.00;92737.72;5031367;28;20111;-74
2022/09/07 05:29:04;;;;;;;7.07;3.92;;;;;;;15.86;100.00;92732.59;5031521;28;20045;-75
2022/09/07 05:31:31;;;;;;;6.90;3.55;;;;;;;15.90;100.00;92736.94;5013640;28;20483;-74
2022/09/07 05:33:57;;;;;;;6.97;3.53;;;;;;;15.96;100.00;92735.72;5013677;28;20052;-74
2022/09/07 05:36:26;;;;;;;7.18;4.05;;;;;;;16.00;100.00;92738.47;5030919;28;20034;-74
2022/09/07 05:38:52;;;;;;;8.30;4.20;;;;;;;16.06;100.00;92742.50;5030811;28;20041;-74
2022/09/07 05:41:23;;;;;;;5.57;3.40;;;;;;;16.08;100.00;92742.97;5031122;28;20065;-74
2022/09/07 05:43:50;;;;;;;10.85;3.53;;;;;;;16.11;100.00;92738.94;5013379;28;20068;-74
2022/09/07 05:46:16;;;;;;;8.63;4.15;;;;;;;16.18;100.00;92739.22;5012243;28;20508;-75
2022/09/07 05:48:41;;;;;;;10.65;3.78;;;;;;;16.20;100.00;92737.81;5031118;28;20034;-75
2022/09/07 05:51:08;;;;;;;8.77;3.60;;;;;;;16.20;100.00;92737.03;5024815;28;20041;-74
2022/09/07 05:53:39;;;;;;;7.18;3.50;;;;;;;16.25;100.00;92744.78;5029840;28;20033;-74
2022/09/07 05:56:05;;;;;;;10.18;3.60;;;;;;;16.29;100.00;92739.66;5030948;28;20064;-74
2022/09/07 05:58:32;;;;;;;7.97;4.00;;;;;;;16.33;100.00;92751.16;5013222;28;20041;-74
2022/09/07 06:01:04;;;;;;;10.40;3.90;;;;;;;16.32;100.00;92755.66;5005993;28;20045;-75
2022/09/07 06:03:30;;;;;;;6.68;4.40;;;;;;;16.35;100.00;92754.28;5013313;28;20149;-74
2022/09/07 06:06:03;;;;;;;7.57;4.03;;;;;;;16.38;100.00;92759.69;5029645;28;20036;-74
2022/09/07 06:08:29;;;;;;;8.43;3.72;;;;;;;16.41;100.00;92753.00;5029244;28;20045;-74
2022/09/07 06:10:55;;;;;;;8.20;3.60;;;;;;;16.45;100.00;92753.91;5024856;28;20042;-74
2022/09/07 06:13:21;;;;;;;6.80;3.65;;;;;;;16.50;100.00;92755.59;5010969;28;20163;-74
2022/09/07 06:15:46;;;;;;;11.05;3.30;;;;;;;16.57;100.00;92761.97;5005501;28;20503;-75
2022/09/07 06:18:12;;;;;;;6.75;3.25;;;;;;;16.62;100.00;92768.97;4993364;28;20042;-75
2022/09/07 06:20:37;;;;;;;7.97;3.58;;;;;;;16.61;100.00;92770.03;5010970;28;20042;-75
2022/09/07 06:23:03;;;;;;;4.80;3.25;;;;;;;16.62;100.00;92775.00;5010988;28;20038;-74
2022/09/07 06:25:28;;;;;;;6.45;3.00;;;;;;;16.64;100.00;92780.00;5011902;28;20038;-74
2022/09/07 06:27:54;;;;;;;10.88;3.63;;;;;;;16.68;100.00;92780.88;5010171;28;20373;-74
2022/09/07 06:30:21;;;;;;;8.50;3.67;;;;;;;16.73;100.00;92775.44;5030126;28;20567;-74
2022/09/07 06:32:47;;;;;;;9.40;3.40;;;;;;;16.73;100.00;92775.44;5014888;28;20117;-74
2022/09/07 06:35:13;;;;;;;6.28;3.20;;;;;;;16.76;100.00;92782.72;5014789;28;20131;-74
2022/09/07 06:37:40;;;;;;;6.55;3.13;;;;;;;16.80;100.00;92791.63;5024164;28;20531;-74
2022/09/07 06:40:06;;;;;;;7.05;3.33;;;;;;;16.84;100.00;92794.38;5014992;28;20103;-74
2022/09/07 06:42:32;;;;;;;5.80;3.13;;;;;;;16.89;100.00;92793.44;5006926;28;20046;-74
2022/09/07 06:44:57;;;;;;;5.70;3.50;;;;;;;16.93;100.00;92803.09;5015029;28;20116;-74
2022/09/07 06:47:23;;;;;;;5.88;3.25;;;;;;;16.95;100.00;92808.03;4997229;28;20427;-74
2022/09/07 06:49:49;;;;;;;6.78;3.30;;;;;;;16.97;100.00;92811.13;5014724;28;20121;-74
2022/09/07 06:52:14;;;;;;;7.18;3.20;;;;;;;17.01;100.00;92807.53;4996973;28;20393;-74
2022/09/07 06:54:40;;;;;;;6.13;3.47;;;;;;;17.04;100.00;92811.41;5014308;28;20049;-74
2022/09/07 06:57:07;;;;;;;5.63;3.17;;;;;;;17.11;100.00;92809.03;5014347;28;20042;-73
2022/09/07 06:59:37;;;;;;;7.95;3.47;;;;;;;17.17;100.00;92818.38;5029616;28;20424;-74
2022/09/07 07:02:03;;;;;;;6.45;3.50;;;;;;;17.22;100.00;92818.19;5014157;28;20392;-74
2022/09/07 07:04:29;;;;;;;9.25;3.53;;;;;;;17.30;100.00;92818.47;5006237;28;20085;-74
2022/09/07 07:06:55;;;;;;;6.95;3.50;;;;;;;17.34;100.00;92816.72;5014292;28;20415;-74
2022/09/07 07:09:20;;;;;;;10.05;3.50;;;;;;;17.41;100.00;92819.66;5014385;28;20036;-74
2022/09/07 07:11:47;;;;;;;6.43;3.15;;;;;;;17.46;100.00;92822.13;5008372;28;20526;-74
2022/09/07 07:14:17;;;;;;;9.15;3.40;;;;;;;17.55;100.00;92830.00;5014202;28;20034;-74
2022/09/07 07:16:42;;;;;;;6.85;3.50;;;;;;;17.67;100.00;92825.56;5014079;28;20040;-74
2022/09/07 07:19:09;;;;;;;7.28;3.85;;;;;;;17.78;100.00;92822.53;5014204;28;20033;-74
2022/09/07 07:21:34;;;;;;;7.15;3.47;;;;;;;17.87;100.00;92826.69;5023168;28;20034;-74
2022/09/07 07:24:00;;;;;;;9.18;3.38;;;;;;;17.90;100.00;92835.88;5029267;28;20507;-74
2022/09/07 07:26:26;;;;;;;7.60;3.28;;;;;;;17.94;100.00;92841.31;5014312;28;20380;-75
2022/09/07 07:28:53;;;;;;;6.72;3.05;;;;;;;18.01;99.69;92842.34;4968063;28;20049;-75
2022/09/07 07:31:21;;;;;;;7.97;3.40;;;;;;;18.01;100.00;92839.69;5013961;28;20044;-75
2022/09/07 07:33:47;;;;;;;4.40;2.72;;;;;;;18.07;96.65;92851.63;5013966;28;20038;-74
2022/09/07 07:36:25;;;;;;;7.22;3.17;;;;;;;17.97;97.61;92849.38;5029168;28;20049;-75
2022/09/07 07:38:52;;;;;;;5.50;3.20;;;;;;;17.95;98.61;92854.22;5011873;28;20069;-76
2022/09/07 07:41:20;;;;;;;5.93;2.95;;;;;;;17.94;97.13;92846.59;5012521;28;20387;-75
2022/09/07 07:43:47;;;;;;;7.07;3.28;;;;;;;17.89;98.19;92839.63;5025003;28;20045;-75
2022/09/07 07:46:15;;;;;;;5.57;3.20;;;;;;;17.89;99.71;92839.63;5015594;28;20287;-76
2022/09/07 07:48:41;;;;;;;5.13;3.10;;;;;;;17.88;97.95;92841.50;5007082;28;20025;-75
2022/09/07 07:51:10;;;;;;;6.97;3.03;;;;;;;17.92;98.62;92836.31;5013573;28;20046;-75
2022/09/07 07:53:37;;;;;;;8.40;3.42;;;;;;;17.96;99.00;92837.22;5012573;28;20111;-75
2022/09/07 07:56:04;;;;;;;7.15;3.40;;;;;;;18.03;97.65;92836.72;5013463;28;20029;-75
2022/09/07 07:58:32;;;;;;;8.07;3.40;;;;;;;18.04;97.61;92847.00;5012287;28;20531;-75
2022/09/07 08:01:06;;;;;;;5.68;3.65;;;;;;;18.06;99.94;92844.78;5013385;28;20492;-75
2022/09/07 08:03:37;;;;;;;5.15;3.42;;;;;;;18.05;100.00;92845.88;5029009;28;20050;-75
2022/09/07 08:06:07;;;;;;;9.30;3.90;;;;;;;18.02;100.00;92849.19;5028804;28;20369;-76
2022/09/07 08:08:35;;;;;;;7.50;3.88;;;;;;;17.99;100.00;92844.53;5013788;28;20129;-74
2022/09/07 08:11:08;;;;;;;6.18;3.78;;;;;;;17.94;100.00;92844.72;5019532;28;20056;-76
2022/09/07 08:13:40;;;;;;;5.95;3.80;;;;;;;17.92;100.00;92848.78;5015082;28;20029;-75
2022/09/07 08:16:06;;;;;;;6.85;4.00;;;;;;;17.94;100.00;92846.59;5015171;28;20061;-75
2022/09/07 08:18:33;;;;;;;6.93;4.00;;;;;;;17.94;100.00;92839.41;5031625;28;20128;-74
2022/09/07 08:21:07;;;;;;;8.38;3.67;;;;;;;18.14;100.00;92853.00;5014971;28;20041;-75
2022/09/07 08:23:33;;;;;;;9.43;4.28;;;;;;;18.00;100.00;92854.03;5032641;28;20048;-74
2022/09/07 08:25:59;;;;;;;14.93;4.72;;;;;;;17.93;100.00;92853.78;5024302;28;20080;-74
2022/09/07 08:28:27;;;;;;;14.13;4.55;;;;;;;17.77;100.00;92858.06;4998447;28;20037;-75
2022/09/07 08:30:53;;;;;;;6.57;4.10;;;;;;;17.88;100.00;92854.75;5012683;28;20037;-74
2022/09/07 08:33:19;;;;;;;6.95;3.80;;;;;;;17.89;100.00;92860.81;5019195;28;20037;-76
2022/09/07 08:35:55;;;;;;;7.38;4.00;;;;;;;17.70;100.00;92853.28;4988966;28;20061;-75
2022/09/07 08:38:20;;;;;;;7.25;3.92;;;;;;;17.67;100.00;92860.00;5019731;28;20045;-76
2022/09/07 08:40:46;;;;;;;9.30;4.75;;;;;;;17.65;100.00;92856.09;5031218;28;20025;-76
2022/09/07 08:43:23;;;;;;;9.07;4.50;;;;;;;17.64;100.00;92862.50;5000965;28;20041;-76
2022/09/07 08:45:59;;;;;;;6.95;4.13;;;;;;;17.65;100.00;92862.19;5052498;28;20093;-75
2022/09/07 08:48:32;;;;;;;7.18;4.10;;;;;;;17.74;100.00;92869.28;5051812;28;20029;-75
2022/09/07 08:50:57;;;;;;;8.75;4.25;;;;;;;17.75;100.00;92860.25;5043160;28;20262;-75
2022/09/07 08:53:24;;;;;;;5.97;3.70;;;;;;;17.80;100.00;92860.06;5031782;28;20392;-75
2022/09/07 08:56:23;;;;;;;10.63;3.80;;;;;;;17.78;100.00;92865.66;5047450;28;20052;-76
2022/09/07 08:58:52;;;;;;;8.93;3.72;;;;;;;17.86;100.00;92861.47;5047626;28;20167;-74
2022/09/07 09:01:22;;;;;;;7.95;4.18;;;;;;;17.90;100.00;92862.38;5032416;28;20048;-75
2022/09/07 09:03:48;;;;;;;7.55;3.78;;;;;;;17.93;100.00;92861.72;5027088;28;20399;-75
2022/09/07 09:06:21;;;;;;;9.07;4.07;;;;;;;17.91;100.00;92863.13;5033379;28;20052;-77
2022/09/07 09:09:28;;;;;;;7.43;3.65;;;;;;;17.86;100.00;92861.47;5013577;28;20026;-80
2022/09/07 09:11:57;;;;;;;6.82;3.90;;;;;;;17.89;100.00;92856.28;5027529;28;20056;-77
2022/09/07 09:14:57;;;;;;;7.88;4.28;;;;;;;17.89;100.00;92858.16;5033300;28;20029;-76
2022/09/07 09:17:39;;;;;;;7.50;3.80;;;;;;;17.94;100.00;92852.66;5023586;28;20120;-76
2022/09/07 09:20:14;;;;;;;7.53;4.35;;;;;;;17.85;100.00;92851.94;5032149;28;20072;-77
2022/09/07 09:22:39;;;;;;;7.75;4.00;;;;;;;17.97;100.00;92845.94;4998033;28;20048;-77
2022/09/07 09:25:22;;;;;;;7.57;4.00;;;;;;;18.15;100.00;92847.38;5014069;28;20049;-77
2022/09/07 09:27:48;;;;;;;10.75;4.03;;;;;;;18.36;100.00;92842.06;5031801;28;20030;-77
2022/09/07 09:30:20;;;;;;;7.18;4.22;;;;;;;18.39;100.00;92838.75;5031431;28;20538;-77
2022/09/07 09:32:48;;;;;;;10.65;4.50;;;;;;;18.41;100.00;92841.84;5031469;28;20376;-76
2022/09/07 09:35:33;;;;;;;10.90;4.43;;;;;;;18.44;100.00;92843.06;5030406;28;20071;-77
2022/09/07 09:38:02;;;;;;;8.43;4.65;;;;;;;18.46;100.00;92841.66;5046906;28;20592;-76
2022/09/07 09:40:33;;;;;;;6.63;3.90;;;;;;;18.47;100.00;92840.56;5031547;28;20048;-76
2022/09/07 09:43:03;;;;;;;9.75;4.03;;;;;;;18.50;100.00;92837.25;5030684;28;20510;-77
2022/09/07 09:45:35;;;;;;;10.45;4.30;;;;;;;18.60;100.00;92840.56;5013862;28;20495;-77
2022/09/07 09:48:07;;;;;;;12.93;4.70;;;;;;;18.67;100.00;92838.97;5030096;28;20403;-74
2022/09/07 09:50:39;;;;;;;13.57;5.20;;;;;;;18.70;100.00;92837.53;5030103;28;20059;-77
2022/09/07 09:53:05;;;;;;;12.25;4.93;;;;;;;18.79;100.00;92838.25;5029942;28;20074;-77
2022/09/07 09:55:35;;;;;;;6.65;4.72;;;;;;;18.91;100.00;92838.28;5031155;28;20049;-77
2022/09/07 09:58:25;;;;;;;10.77;5.50;;;;;;;19.03;100.00;92834.09;5029954;28;20470;-77
2022/09/07 10:01:02;;;;;;;13.90;5.28;;;;;;;19.10;100.00;92831.66;5031278;28;20033;-77
2022/09/07 10:03:33;;;;;;;8.30;5.65;;;;;;;19.16;100.00;92830.31;5031191;28;20079;-77
2022/09/07 10:06:06;;;;;;;11.25;5.60;;;;;;;19.28;100.00;92826.94;4997245;28;20446;-77
2022/09/07 10:08:35;;;;;;;10.95;6.07;;;;;;;19.38;100.00;92829.13;5013348;28;20446;-77
2022/09/07 10:11:05;;;;;;;11.88;6.32;;;;;;;19.46;100.00;92827.47;4997487;28;20044;-76
2022/09/07 10:13:52;;;;;;;10.05;6.47;;;;;;;19.50;100.00;92823.06;5029727;28;20383;-77
2022/09/07 10:16:17;;;;;;;12.30;6.80;;;;;;;19.56;100.00;92821.69;5030424;28;20049;-76
2022/09/07 10:18:57;;;;;;;11.85;6.40;;;;;;;19.59;99.07;92821.06;5031152;28;20052;-76
2022/09/07 10:21:26;;;;;;;14.75;7.22;;;;;;;19.61;97.72;92818.84;5031127;28;20025;-77
2022/09/07 10:24:05;;;;;;;13.65;6.35;;;;;;;19.64;98.99;92818.16;5013478;28;20411;-76
2022/09/07 10:26:32;;;;;;;13.23;4.22;;;;;;;19.64;98.77;92817.41;5029825;28;20044;-75
2022/09/07 10:29:13;;;;;;;7.13;4.05;;;;;;;19.49;100.00;92816.94;5026447;28;20021;-77
2022/09/07 10:31:58;;;;;;;5.88;4.07;;;;;;;19.28;100.00;92805.69;5030323;28;20065;-77
2022/09/07 10:34:45;;;;;;;10.77;4.63;;;;;;;19.24;100.00;92800.25;5030002;28;20033;-77
2022/09/07 10:37:24;;;;;;;11.02;4.20;;;;;;;19.39;100.00;92795.41;5031540;28;20345;-76
2022/09/07 10:40:05;;;;;;;8.43;4.63;;;;;;;19.76;100.00;92798.81;5030413;28;20124;-77
2022/09/07 10:42:45;;;;;;;10.00;5.45;;;;;;;20.00;99.07;92792.66;5031610;28;20041;-77
2022/09/07 10:45:29;;;;;;;8.05;4.40;;;;;;;20.33;96.38;92786.31;5031562;28;20037;-76
2022/09/07 10:48:32;;;;;;;7.88;4.85;;;;;;;20.46;95.53;92782.50;5031763;28;20045;-75
2022/09/07 10:51:04;;;;;;;7.13;4.30;;;;;;;20.70;93.75;92781.63;5030178;28;20044;-76
2022/09/07 10:53:32;;;;;;;10.15;3.88;;;;;;;20.84;92.29;92786.53;5029987;28;20131;-77
2022/09/07 10:56:18;;;;;;;10.77;4.50;;;;;;;21.04;90.71;92776.75;5046788;28;20036;-77
2022/09/07 10:58:56;;;;;;;9.00;4.50;;;;;;;20.99;87.32;92772.47;5030696;28;20041;-76
2022/09/07 11:01:27;;;;;;;7.88;4.70;;;;;;;20.98;86.38;92775.47;5031311;28;20378;-75
2022/09/07 11:04:24;;;;;;;8.20;4.50;;;;;;;21.18;87.22;92771.00;5031136;28;20041;-77
2022/09/07 11:06:58;;;;;;;9.93;3.95;;;;;;;21.35;86.64;92775.19;5031263;28;20415;-76
2022/09/07 11:09:39;;;;;;;8.80;4.80;;;;;;;21.26;88.87;92780.69;5031411;28;20040;-76
2022/09/07 11:12:17;;;;;;;8.80;4.38;;;;;;;21.75;85.92;92782.94;5019657;28;20053;-75
2022/09/07 11:15:07;;;;;;;9.35;4.50;;;;;;;22.21;83.04;92772.47;5033923;28;20415;-75
2022/09/07 11:17:52;;;;;;;8.80;4.30;;;;;;;22.38;81.35;92778.50;5035018;28;20534;-77
2022/09/07 11:20:30;;;;;;;10.27;4.80;;;;;;;22.52;79.84;92772.66;5000823;28;20044;-77
2022/09/07 11:22:58;;;;;;;9.10;4.82;;;;;;;22.39;82.25;92772.81;5033888;28;20514;-77
2022/09/07 11:25:35;;;;;;;12.07;4.80;;;;;;;22.19;82.87;92772.03;5017238;28;20152;-77
2022/09/07 11:28:16;;;;;;;10.60;5.53;;;;;;;21.80;80.77;92769.34;5034778;28;20523;-77
2022/09/07 11:30:52;;;;;;;10.07;5.07;;;;;;;21.57;83.32;92766.59;5033229;28;20102;-77
2022/09/07 11:33:47;;;;;;;8.85;4.82;;;;;;;21.47;83.31;92763.69;5033128;28;20090;-76
2022/09/07 11:36:16;;;;;;;19.98;5.05;;;;;;;21.71;84.80;92758.13;5034517;28;20464;-77
2022/09/07 11:38:50;;;;;;;13.75;5.10;;;;;;;21.76;81.64;92765.06;5018529;28;20536;-76
2022/09/07 11:41:25;;;;;;;11.77;5.50;;;;;;;22.09;80.33;92761.13;5035275;28;20315;-76